Latest Weather Observations for Perth Airport

IDW60901

Issued at 6:55 am WST Friday 28 November 2014 (issued every 10 minutes, with the page automatically refreshed every 10 minutes)

About weather observations | Map of Perth area stations | Latest observations for Perth area | Other Formats
Station Details ID: 009021 Name: PERTH AIRPORT Lat: -31.93 Lon: 115.98 Height: 15.4 m
Data from the previous 72 hours. | See also: Recent months at Perth Airport
Date/Time
WST
Tmp

°C
App
Tmp
°C
Dew
Point
°C
Rel
Hum
%
Delta-T

°C
Wind Press
QNH
hPa
Press
MSL
hPa
Rain
since
9 am
mm
Dir
 
Spd
km/h
Gust
km/h
Spd
kts
Gust
kts
28/06:30am 19.3 19.4 16.5 84 1.7 S 11 15 6 8 1009.7 - 3.0
28/06:00am 18.7 19.1 16.4 86 1.4 SSW 9 11 5 6 1009.5 1009.5 3.0
28/05:30am 18.0 17.6 16.3 90 1.0 SSW 13 15 7 8 1009.3 - 3.0
28/05:00am 17.2 17.6 16.4 95 0.5 SW 9 13 5 7 1009.2 - 3.0
28/04:30am 17.7 18.6 16.5 93 0.7 SSW 7 9 4 5 1008.9 - 3.0
28/04:00am 18.9 19.6 17.1 89 1.1 SSW 9 11 5 6 1008.7 - 3.0
28/03:30am 18.5 19.6 17.0 91 0.9 SSW 7 13 4 7 1008.8 - 3.0
28/03:00am 18.9 20.5 16.9 88 1.2 ESE 4 7 2 4 1008.6 1008.6 3.0
28/02:30am 19.2 20.4 17.4 89 1.1 S 7 9 4 5 1008.8 - 3.0
28/02:00am 19.3 20.2 17.5 89 1.1 SSE 9 11 5 6 1008.9 - 3.0
28/01:30am 19.5 19.8 16.9 85 1.6 S 11 15 6 8 1008.7 - 3.0
28/01:00am 20.3 20.2 16.1 77 2.5 S 11 15 6 8 1009.0 - 3.0
28/12:30am 19.6 20.6 16.8 84 1.7 SSE 7 9 4 5 1009.2 - 3.0
28/12:00am 19.0 20.8 16.5 85 1.5 NNE 2 13 1 7 1009.1 1009.1 3.0
 
Date/Time
WST
Tmp

°C
App
Tmp
°C
Dew
Point
°C
Rel
Hum
%
Delta-T

°C
Wind Press
QNH
hPa
Press
MSL
hPa
Rain
since
9 am
mm
Dir
 
Spd
km/h
Gust
km/h
Spd
kts
Gust
kts
27/11:30pm 19.7 20.8 16.7 83 1.8 NE 6 9 3 5 1009.1 - 3.0
27/11:00pm 20.6 22.0 17.7 83 1.8 ESE 7 9 4 5 1009.2 - 3.0
27/10:30pm 21.1 21.6 17.5 80 2.2 SSE 11 17 6 9 1009.4 - 3.0
27/10:00pm 21.8 21.5 17.3 75 2.8 SSW 15 19 8 10 1009.3 - 3.0
27/09:30pm 22.0 22.3 17.1 74 3.0 SW 11 17 6 9 1009.1 - 3.0
27/09:00pm 21.8 22.9 17.1 74 2.9 SSE 7 11 4 6 1009.0 1009.0 3.0
27/08:30pm 21.5 21.2 17.4 77 2.5 ESE 15 19 8 10 1008.7 - 3.0
27/08:00pm 21.8 23.2 17.8 78 2.5 E 7 9 4 5 1008.6 - 3.0
27/07:30pm 21.7 22.9 18.3 81 2.1 E 9 11 5 6 1008.5 - 3.0
27/07:00pm 22.7 24.2 18.9 79 2.4 E 9 11 5 6 1008.5 - 3.0
27/06:30pm 25.2 26.0 17.4 62 4.9 SSE 9 13 5 7 1008.3 - 3.0
27/06:00pm 25.4 26.1 17.0 59 5.2 ESE 9 13 5 7 1008.4 1008.4 3.0
27/05:30pm 25.3 25.8 16.5 58 5.4 ESE 9 15 5 8 1008.5 - 3.0
27/05:00pm 24.9 23.8 16.3 59 5.3 SE 17 22 9 12 1008.6 - 2.8
27/04:30pm 24.3 21.8 17.0 63 4.5 SSE 26 32 14 17 1009.0 - 2.8
27/04:00pm 23.6 21.6 18.2 71 3.4 SSE 26 35 14 19 1009.6 - 2.8
27/03:30pm 22.6 20.7 18.5 77 2.6 S 26 32 14 17 1010.0 - 2.8
27/03:00pm 21.2 19.9 19.1 88 1.3 S 24 33 13 18 1010.6 1010.6 2.8
27/02:30pm 22.6 22.1 18.6 78 2.5 SSW 19 28 10 15 1011.1 - 1.6
27/02:16pm 23.4 22.2 17.1 67 3.9 SSW 19 28 10 15 1010.9 - 1.2
27/02:00pm 24.3 23.4 17.7 66 4.1 SSW 19 28 10 15 1010.4 - 1.0
27/01:30pm 25.7 24.1 16.6 57 5.6 SSW 20 28 11 15 1010.1 - 1.0
27/01:00pm 25.9 23.7 16.9 57 5.6 S 24 32 13 17 1010.0 - 1.0
27/12:30pm 24.8 23.1 17.1 62 4.8 S 22 28 12 15 1010.3 - 1.0
27/12:00pm 23.8 23.2 17.5 68 3.9 SSE 17 22 9 12 1011.0 1011.0 1.0
27/11:30am 23.5 23.2 18.3 72 3.3 S 17 24 9 13 1011.4 - 1.0
27/11:00am 23.1 23.7 17.6 71 3.4 S 11 15 6 8 1011.9 - 0.6
27/10:30am 22.4 24.1 18.4 78 2.5 WSW 7 11 4 6 1012.4 - 0.6
27/10:00am 22.1 23.6 18.9 82 2.0 SSW 9 13 5 7 1012.3 - 0.4
27/09:30am 23.1 23.3 17.6 71 3.4 S 13 17 7 9 1011.7 - 0.0
27/09:00am 23.4 23.9 18.3 73 3.2 S 13 17 7 9 1011.5 1011.5 10.6
27/08:30am 21.9 22.2 18.0 78 2.4 S 13 17 7 9 1011.9 - 10.6
27/08:00am 21.2 21.1 17.8 81 2.1 S 15 19 8 10 1011.9 - 10.6
27/07:30am 21.2 20.6 18.5 84 1.7 SW 19 22 10 12 1011.9 - 10.6
27/07:00am 19.8 20.5 18.0 89 1.1 S 11 15 6 8 1011.6 - 10.6
27/06:30am 19.2 19.9 17.9 92 0.8 E 11 15 6 8 1011.5 - 10.6
27/06:00am 19.4 16.6 17.4 88 1.2 NE 28 33 15 18 1011.6 1011.6 10.0
27/05:30am 19.6 17.6 17.3 86 1.4 NNE 24 28 13 15 1010.9 - 9.4
27/05:00am 19.5 19.7 17.7 89 1.1 N 13 17 7 9 1010.4 - 9.4
27/04:51am 19.5 19.3 17.7 89 1.1 N 15 17 8 9 1010.3 - 9.2
27/04:30am 20.3 18.7 17.4 83 1.8 N 22 30 12 16 1010.1 - 9.0
27/04:00am 21.3 20.1 16.2 72 3.1 NE 17 20 9 11 1008.9 - 8.6
27/03:30am 21.2 19.4 15.9 72 3.2 NE 20 28 11 15 1008.9 - 8.6
27/03:00am 21.0 19.6 15.6 71 3.2 NE 17 26 9 14 1009.1 1009.1 8.6
27/02:30am 20.6 18.6 15.6 73 3.0 NE 20 28 11 15 1008.8 - 8.6
27/02:00am 21.1 17.6 15.4 70 3.4 ENE 28 35 15 19 1008.9 - 8.6
27/01:30am 21.0 17.0 15.3 70 3.4 ENE 30 35 16 19 1008.7 - 8.6
27/01:00am 21.1 17.2 15.4 70 3.4 ENE 30 35 16 19 1009.1 - 8.6
27/12:30am 21.0 16.5 15.5 71 3.3 ENE 33 43 18 23 1009.0 - 8.6
27/12:00am 21.1 16.2 15.4 70 3.4 E 35 46 19 25 1009.1 1009.1 8.6
 
Date/Time
WST
Tmp

°C
App
Tmp
°C
Dew
Point
°C
Rel
Hum
%
Delta-T

°C
Wind Press
QNH
hPa
Press
MSL
hPa
Rain
since
9 am
mm
Dir
 
Spd
km/h
Gust
km/h
Spd
kts
Gust
kts
26/11:30pm 21.1 16.2 15.2 69 3.5 E 35 52 19 28 1009.5 - 8.6
26/11:00pm 21.1 16.6 15.4 70 3.4 E 33 50 18 27 1009.8 - 8.6
26/10:30pm 21.2 16.7 15.3 69 3.5 E 33 44 18 24 1009.4 - 8.6
26/10:15pm 21.7 17.1 14.6 64 4.2 E 32 50 17 27 1009.4 - 8.6
26/10:00pm 21.3 16.9 15.1 67 3.7 E 32 43 17 23 1009.8 - 8.6
26/09:36pm 20.8 16.5 15.4 71 3.2 ESE 32 50 17 27 1009.8 - 8.6
26/09:30pm 20.3 17.4 16.0 76 2.6 E 26 37 14 20 1009.9 - 8.6
26/09:00pm 21.7 19.7 14.9 65 4.0 E 19 30 10 16 1010.5 1010.5 8.4
26/08:30pm 21.0 18.2 15.3 70 3.4 ESE 24 33 13 18 1009.8 - 8.4
26/08:23pm 20.4 16.6 15.7 74 2.8 E 30 48 16 26 1009.6 - 8.4
26/08:16pm 20.0 15.0 16.0 78 2.4 E 37 48 20 26 1009.4 - 8.4
26/08:00pm 19.3 16.8 17.0 86 1.4 E 26 30 14 16 1011.1 - 8.4
26/07:30pm 19.4 18.3 17.4 88 1.2 NE 19 26 10 14 1012.4 - 8.0
26/07:00pm 19.6 18.7 16.8 84 1.7 NE 17 22 9 12 1011.0 - 7.6
26/06:30pm 19.7 15.9 16.7 83 1.8 E 32 50 17 27 1010.4 - 7.2
26/06:00pm 19.8 17.9 16.7 82 1.9 E 22 30 12 16 1010.5 1010.5 6.6
26/05:30pm 19.7 17.2 17.1 85 1.6 E 26 52 14 28 1010.5 - 6.0
26/05:21pm 19.8 16.6 17.2 85 1.6 E 30 52 16 28 1010.6 - 5.4
26/05:00pm 19.9 16.3 17.3 85 1.6 E 32 35 17 19 1010.8 - 4.0
26/04:30pm 20.7 17.6 17.6 82 1.9 ENE 30 37 16 20 1010.5 - 2.4
26/04:11pm 22.5 19.2 16.1 67 3.9 NE 28 43 15 23 1010.0 - 1.6
26/04:00pm 23.2 22.0 16.1 64 4.3 N 17 20 9 11 1009.7 - 1.4
26/03:57pm 23.4 21.6 16.0 63 4.5 N 20 24 11 13 1009.7 - 1.4
26/03:30pm 25.2 22.0 13.2 47 7.0 ESE 22 30 12 16 1007.7 - 1.4
26/03:25pm 25.1 21.7 13.7 49 6.7 ESE 24 30 13 16 1007.6 - 1.4
26/03:07pm 23.8 17.6 14.9 57 5.3 SE 41 59 22 32 1006.6 - 1.4
26/03:00pm 23.5 17.5 15.5 60 4.8 SE 41 59 22 32 1006.8 1006.8 1.4
26/02:58pm 23.7 16.0 15.6 60 4.9 SE 50 59 27 32 1006.8 - 1.4
26/02:44pm 23.5 20.4 16.5 65 4.3 SE 28 39 15 21 1007.9 - 1.2
26/02:30pm 24.2 24.2 17.1 64 4.4 SSW 13 19 7 10 1009.0 - 1.2
26/02:00pm 25.1 24.2 15.9 56 5.6 SE 15 26 8 14 1008.8 - 0.6
26/01:30pm 28.0 25.9 14.8 44 8.0 S 19 22 10 12 1008.5 - 0.0
26/01:00pm 31.7 28.8 9.7 25 12.5 NE 15 26 8 14 1008.7 - 0.0
26/12:44pm 32.8 27.6 5.5 18 14.6 E 22 33 12 18 1008.4 - 0.0
26/12:30pm 33.4 27.0 5.0 17 15.1 E 28 32 15 17 1008.5 - 0.0
26/12:00pm 34.3 28.2 6.5 18 15.2 E 28 39 15 21 1009.1 1009.1 0.0
26/11:30am 32.0 26.8 8.8 23 13.0 ENE 26 35 14 19 1009.7 - 0.0
26/11:00am 30.6 25.9 9.2 26 12.0 E 24 33 13 18 1010.2 - 0.0
26/10:30am 27.2 22.9 9.5 33 9.8 NE 22 32 12 17 1011.0 - 0.0
26/10:00am 25.8 19.2 8.4 33 9.4 ENE 33 44 18 24 1011.1 - 0.0
26/09:42am 25.4 18.9 8.0 33 9.3 ENE 32 52 17 28 1011.5 - 0.0
26/09:30am 24.9 18.9 8.5 35 8.8 ENE 30 46 16 25 1011.9 - 0.0
26/09:00am 23.9 17.9 8.8 38 8.1 NE 30 41 16 22 1012.3 1012.3 0.0
26/08:30am 23.0 15.2 8.3 39 7.8 ENE 39 52 21 28 1012.1 - 0.0
26/08:10am 22.1 14.5 9.0 43 7.0 ENE 39 59 21 32 1012.3 - 0.0
26/08:00am 21.5 14.2 8.9 44 6.7 ENE 37 52 20 28 1012.2 - 0.0
26/07:30am 20.8 11.7 8.6 45 6.4 E 46 57 25 31 1012.2 - 0.0
26/07:00am 20.6 12.0 8.8 46 6.2 E 44 56 24 30 1012.2 - 0.0
26/06:30am 19.8 10.8 8.7 48 5.8 E 46 65 25 35 1012.1 - 0.0
26/06:00am 19.2 11.9 8.9 51 5.4 ENE 37 59 20 32 1012.1 1012.1 0.0
26/05:30am 19.2 11.1 8.6 50 5.5 E 41 59 22 32 1012.5 - 0.0
26/05:00am 19.2 12.9 8.9 51 5.4 ENE 32 54 17 29 1012.3 - 0.0
26/04:43am 19.2 12.7 8.9 51 5.4 ENE 33 54 18 29 1012.4 - 0.0
26/04:30am 19.2 12.9 8.9 51 5.4 E 32 48 17 26 1012.4 - 0.0
26/04:14am 19.4 13.8 8.9 50 5.5 E 28 46 15 25 1012.1 - 0.0
26/04:00am 19.4 13.5 8.9 50 5.5 E 30 41 16 22 1012.1 - 0.0
26/03:30am 19.7 13.4 8.8 49 5.7 E 32 46 17 25 1011.9 - 0.0
26/03:17am 19.9 14.3 8.6 48 5.9 E 28 48 15 26 1011.8 - 0.0
26/03:00am 19.9 13.0 8.9 49 5.8 E 35 52 19 28 1011.7 1011.7 0.0
26/02:30am 20.5 14.2 9.0 47 6.1 E 32 41 17 22 1011.9 - 0.0
26/02:00am 21.2 17.1 8.5 44 6.7 E 20 39 11 21 1011.7 - 0.0
26/01:30am 21.8 15.3 8.3 42 7.1 E 32 52 17 28 1011.5 - 0.0
26/01:00am 22.5 16.8 8.3 40 7.5 E 28 54 15 29 1011.9 - 0.0
26/12:30am 23.6 16.1 7.9 36 8.3 E 37 57 20 31 1012.0 - 0.0
26/12:00am 24.6 15.8 7.3 33 9.1 E 43 63 23 34 1011.8 1011.8 0.0
 
Date/Time
WST
Tmp

°C
App
Tmp
°C
Dew
Point
°C
Rel
Hum
%
Delta-T

°C
Wind Press
QNH
hPa
Press
MSL
hPa
Rain
since
9 am
mm
Dir
 
Spd
km/h
Gust
km/h
Spd
kts
Gust
kts
25/11:33pm 26.0 16.2 5.2 26 10.6 E 46 65 25 35 1011.8 - 0.0
25/11:30pm 26.0 16.5 4.9 25 10.7 E 44 61 24 33 1011.7 - 0.0
25/11:02pm 26.7 16.6 1.8 20 12.0 E 44 63 24 34 1011.9 - 0.0
25/11:00pm 26.6 16.3 2.4 21 11.8 E 46 63 25 34 1011.9 - 0.0
25/10:30pm 27.5 17.5 0.9 17 12.7 E 43 61 23 33 1012.1 - 0.0
25/10:07pm 27.7 17.9 0.1 16 13.0 E 41 61 22 33 1012.2 - 0.0
25/10:00pm 27.7 18.7 0.1 16 13.0 E 37 48 20 26 1012.2 - 0.0
25/09:35pm 27.9 19.8 -0.3 16 13.2 E 32 52 17 28 1012.4 - 0.0
25/09:30pm 27.9 20.2 -0.3 16 13.2 E 30 41 16 22 1012.4 - 0.0
25/09:00pm 27.7 21.6 0.5 17 12.9 ESE 22 32 12 17 1012.5 1012.5 0.0
25/08:30pm 24.3 21.5 5.3 29 9.6 SSE 9 13 5 7 1012.6 - 0.0
25/08:00pm 25.0 21.7 6.2 30 9.7 S 13 19 7 10 1012.5 - 0.0
25/07:30pm 27.8 23.6 5.7 24 11.5 S 17 22 9 12 1012.2 - 0.0
25/07:00pm 29.6 25.4 3.9 19 13.1 SSE 15 20 8 11 1012.0 - 0.0
25/06:30pm 31.3 25.9 2.5 16 14.5 SE 20 32 11 17 1011.9 - 0.0
25/06:00pm 32.4 25.8 2.3 15 15.2 SE 26 32 14 17 1012.0 1012.0 0.0
25/05:30pm 33.1 26.3 3.2 15 15.4 SSE 28 33 15 18 1011.9 - 0.0
25/05:00pm 33.5 27.3 2.2 14 15.9 ESE 24 32 13 17 1012.1 - 0.0
25/04:30pm 33.7 28.3 2.6 14 15.9 SE 20 28 11 15 1012.2 - 0.0
25/04:00pm 33.9 29.0 1.9 13 16.2 ESE 17 26 9 14 1012.6 - 0.0
25/03:30pm 33.5 28.8 2.9 14 15.7 ESE 17 32 9 17 1012.9 - 0.0
25/03:00pm 33.6 29.2 2.8 14 15.8 SE 15 28 8 15 1013.2 1013.2 0.0
25/02:30pm 33.5 29.3 3.7 15 15.5 SE 15 22 8 12 1013.5 - 0.0
25/02:00pm 33.6 29.9 4.6 16 15.3 ENE 13 19 7 10 1013.9 - 0.0
25/01:30pm 32.2 26.4 4.4 17 14.5 E 24 28 13 15 1014.4 - 0.0
25/01:00pm 31.8 28.1 6.3 20 13.7 ESE 15 24 8 13 1015.0 - 0.0
25/12:30pm 30.6 26.1 6.2 21 13.0 E 19 24 10 13 1015.6 - 0.0
25/12:00pm 30.6 26.2 7.4 23 12.6 E 20 33 11 18 1016.0 1016.0 0.0
25/11:30am 28.8 24.1 7.7 26 11.4 ESE 22 33 12 18 1016.5 - 0.0
25/11:00am 27.6 23.3 7.7 28 10.7 ESE 20 28 11 15 1017.0 - 0.0
25/10:30am 26.8 21.4 8.0 30 10.1 E 26 33 14 18 1017.4 - 0.0
25/10:00am 24.9 19.4 7.4 32 9.2 E 26 33 14 18 1017.8 - 0.0
25/09:30am 23.8 18.2 7.3 34 8.6 E 26 35 14 19 1018.2 - 0.0
25/09:00am 21.9 14.9 6.8 37 7.7 E 33 43 18 23 1018.6 1018.6 0.0
25/08:30am 20.6 13.8 6.8 40 7.0 E 32 44 17 24 1019.0 - 0.0
25/08:00am 19.3 12.5 7.0 44 6.2 E 32 46 17 25 1019.0 - 0.0
25/07:30am 17.5 13.1 6.6 48 5.4 ENE 19 33 10 18 1019.0 - 0.0
25/07:00am 16.4 11.7 6.1 50 5.0 E 20 39 11 21 1018.4 - 0.0

Latest Capital City Observations: Canberra | Sydney | Melbourne | Brisbane | Adelaide | Perth | Hobart | Darwin

Other Formats:

Comma delimited format used in spreadsheet applications
http://www.bom.gov.au/fwo/IDW60901/IDW60901.94610.axf

JavaScript Object Notation format (JSON) in row-major order
http://www.bom.gov.au/fwo/IDW60901/IDW60901.94610.json